Hengoed, United Kingdom
Current Conditions -  °F | °C
As of 10:50 AM on Monday 20 Oct 2014 (Local Time) from EGFF Reporting Station
Scattered Clouds Scattered Clouds  
Wind Chill: 14°   Ceiling: Unl
Heat Index: 14°   Visibility: 6mi
Dew Point: 11°   Wind: 12mph
Humidity: 82%   Direction: 260°W
Pressure: 30.03"   Gusts: NA
Location:  51.64°N, 3.24°W
Report Text: EGFF 200950Z AUTO 26010KT 9999 FEW009 SCT035 14/11 Q1017 RERA
Loading
Personal Weather Stations






























Interactive Weather Map
Tropical Storm Tracking
New forecast layout! Learn more

10-Day Weather Forecast

Advertisements
Track Severe Weather on mobile